Time;durP1;ratioP1;P1;durP2;ratioP2;P2;SDS_P1;SDS_P2;PMS_P1;PMS_P2;Temp;Humidity;BMP_temperature;BMP_pressure;BME280_temperature;BME280_humidity;BME280_pressure;Samples;Min_cycle;Max_cycle;Signal;HPM_P1;HPM_P2
2021/04/28 00:00:07;;;;;;;8.20;4.32;;;;;;;;;;5060341;28;20202;-81
2021/04/28 00:02:34;;;;;;;5.35;3.80;;;;;;;;;;5060920;28;20229;-80
2021/04/28 00:05:04;;;;;;;6.43;3.72;;;;;;;;;;5060196;28;20237;-81
2021/04/28 00:07:31;;;;;;;4.32;3.70;;;;;;;;;;5060370;28;20194;-81
2021/04/28 00:09:59;;;;;;;3.63;3.08;;;;;;;;;;5060601;28;20236;-81
2021/04/28 00:12:25;;;;;;;5.57;3.53;;;;;;;;;;5059654;28;20228;-81
2021/04/28 00:14:53;;;;;;;4.82;3.38;;;;;;;;;;5060699;28;20185;-80
2021/04/28 00:17:21;;;;;;;4.82;3.33;;;;;;;;;;5060963;28;20206;-80
2021/04/28 00:19:48;;;;;;;4.70;3.25;;;;;;;;;;5060113;28;20212;-80
2021/04/28 00:22:16;;;;;;;4.10;3.25;;;;;;;;;;5060138;28;20217;-80
2021/04/28 00:24:43;;;;;;;6.38;3.97;;;;;;;;;;5059913;28;20196;-80
2021/04/28 00:27:11;;;;;;;4.10;3.10;;;;;;;;;;5060728;28;20186;-80
2021/04/28 00:29:37;;;;;;;3.80;3.38;;;;;;;;;;5059209;28;20198;-81
2021/04/28 00:32:06;;;;;;;4.32;3.30;;;;;;;;;;5060314;28;20574;-80
2021/04/28 00:34:33;;;;;;;5.00;3.60;;;;;;;;;;5060006;28;20209;-81
2021/04/28 00:37:00;;;;;;;3.53;3.08;;;;;;;;;;5060133;28;20205;-80
2021/04/28 00:39:27;;;;;;;4.50;2.97;;;;;;;;;;5060790;28;20213;-81
2021/04/28 00:41:54;;;;;;;3.70;3.08;;;;;;;;;;5059967;28;20229;-81
2021/04/28 00:44:22;;;;;;;3.28;2.97;;;;;;;;;;5060014;28;20200;-81
2021/04/28 00:46:49;;;;;;;4.85;2.63;;;;;;;;;;5060219;28;20560;-80
2021/04/28 00:49:15;;;;;;;3.38;3.08;;;;;;;;;;5059353;28;20182;-80
2021/04/28 00:51:42;;;;;;;3.28;2.97;;;;;;;;;;5059860;28;20182;-80
2021/04/28 00:54:10;;;;;;;3.05;2.83;;;;;;;;;;5060189;28;20209;-81
2021/04/28 00:56:39;;;;;;;4.10;3.10;;;;;;;;;;5058791;28;20232;-80
2021/04/28 00:59:05;;;;;;;3.65;3.35;;;;;;;;;;5059204;28;20228;-81
2021/04/28 01:01:32;;;;;;;4.43;3.30;;;;;;;;;;5059185;28;20205;-81
2021/04/28 01:04:00;;;;;;;4.53;4.13;;;;;;;;;;5060266;28;20724;-81
2021/04/28 01:06:28;;;;;;;3.33;3.03;;;;;;;;;;5059351;28;20178;-81
2021/04/28 01:08:55;;;;;;;3.00;2.78;;;;;;;;;;5060099;28;20245;-81
2021/04/28 01:11:22;;;;;;;2.60;2.30;;;;;;;;;;5058814;28;20193;-81
2021/04/28 01:13:50;;;;;;;5.72;3.58;;;;;;;;;;5059679;28;20233;-81
2021/04/28 01:16:17;;;;;;;4.22;2.88;;;;;;;;;;5058982;28;20228;-81
2021/04/28 01:18:44;;;;;;;3.70;2.95;;;;;;;;;;5059500;28;20178;-81
2021/04/28 01:21:11;;;;;;;4.35;2.75;;;;;;;;;;5059107;28;20181;-81
2021/04/28 01:23:38;;;;;;;4.38;2.67;;;;;;;;;;5058612;28;20243;-81
2021/04/28 01:26:05;;;;;;;4.75;3.00;;;;;;;;;;5059535;28;20189;-80
2021/04/28 01:28:33;;;;;;;2.90;2.60;;;;;;;;;;5059264;28;20271;-80
2021/04/28 01:31:05;;;;;;;5.80;3.08;;;;;;;;;;5059455;28;20180;-80
2021/04/28 01:33:35;;;;;;;2.83;2.63;;;;;;;;;;5059432;28;20283;-80
2021/04/28 01:36:03;;;;;;;2.95;2.55;;;;;;;;;;5060222;28;20772;-80
2021/04/28 01:38:37;;;;;;;6.78;3.15;;;;;;;;;;5060250;28;20212;-80
2021/04/28 01:41:06;;;;;;;3.60;3.30;;;;;;;;;;5064974;28;20193;-80
2021/04/28 01:43:33;;;;;;;5.80;3.28;;;;;;;;;;5068049;28;20222;-79
2021/04/28 01:46:00;;;;;;;3.60;2.75;;;;;;;;;;5067724;28;20201;-79
2021/04/28 01:48:27;;;;;;;3.65;3.08;;;;;;;;;;5068532;28;20202;-79
2021/04/28 01:50:54;;;;;;;5.22;3.72;;;;;;;;;;5067282;28;20683;-79
2021/04/28 01:53:24;;;;;;;2.80;2.60;;;;;;;;;;5068354;28;20233;-80
2021/04/28 01:55:54;;;;;;;3.95;3.22;;;;;;;;;;5067468;28;20663;-80
2021/04/28 01:58:23;;;;;;;4.80;3.05;;;;;;;;;;5067751;28;20202;-80
2021/04/28 02:00:51;;;;;;;2.63;2.30;;;;;;;;;;5065643;28;20198;-80
2021/04/28 02:03:20;;;;;;;3.35;2.75;;;;;;;;;;5057588;28;20260;-80
2021/04/28 02:05:47;;;;;;;3.70;3.40;;;;;;;;;;5057800;28;20205;-80
2021/04/28 02:08:14;;;;;;;3.28;2.88;;;;;;;;;;5058694;28;20232;-80
2021/04/28 02:10:41;;;;;;;4.32;3.05;;;;;;;;;;5057897;28;20205;-80
2021/04/28 02:13:09;;;;;;;3.75;3.05;;;;;;;;;;5058072;28;20728;-80
2021/04/28 02:15:37;;;;;;;2.90;2.70;;;;;;;;;;5058293;28;20196;-80
2021/04/28 02:18:05;;;;;;;4.32;3.20;;;;;;;;;;5058001;28;20222;-80
2021/04/28 02:20:32;;;;;;;5.00;3.30;;;;;;;;;;5058268;28;20220;-80
2021/04/28 02:23:02;;;;;;;6.38;4.45;;;;;;;;;;5058403;28;20217;-81
2021/04/28 02:25:29;;;;;;;7.32;4.28;;;;;;;;;;5057489;28;20597;-80
2021/04/28 02:27:56;;;;;;;6.72;4.35;;;;;;;;;;5057821;28;20289;-80
2021/04/28 02:30:25;;;;;;;10.40;6.57;;;;;;;;;;5057602;28;20206;-80
2021/04/28 02:32:54;;;;;;;9.73;6.18;;;;;;;;;;5057366;28;20236;-80
2021/04/28 02:35:25;;;;;;;12.98;7.18;;;;;;;;;;5057216;28;20660;-80
2021/04/28 02:37:56;;;;;;;12.30;7.30;;;;;;;;;;5061332;28;20742;-80
2021/04/28 02:40:23;;;;;;;14.20;8.48;;;;;;;;;;5060751;28;20186;-80
2021/04/28 02:42:50;;;;;;;16.27;9.55;;;;;;;;;;5060831;28;20836;-80
2021/04/28 02:45:20;;;;;;;13.70;7.45;;;;;;;;;;5060820;28;20227;-80
2021/04/28 02:47:48;;;;;;;15.73;8.45;;;;;;;;;;5061008;28;20197;-80
2021/04/28 02:50:19;;;;;;;17.60;8.27;;;;;;;;;;5061331;28;20190;-80
2021/04/28 02:52:47;;;;;;;13.20;7.38;;;;;;;;;;5059881;28;20222;-80
2021/04/28 02:55:15;;;;;;;14.30;8.52;;;;;;;;;;5059948;28;20259;-80
2021/04/28 02:57:44;;;;;;;12.43;6.60;;;;;;;;;;5060456;28;20256;-80
2021/04/28 03:00:15;;;;;;;14.73;8.48;;;;;;;;;;5061156;28;20272;-79
2021/04/28 03:02:42;;;;;;;11.73;6.57;;;;;;;;;;5060528;28;20229;-80
2021/04/28 03:05:12;;;;;;;12.60;6.35;;;;;;;;;;5060614;28;20241;-80
2021/04/28 03:07:40;;;;;;;13.32;8.00;;;;;;;;;;5061505;28;20587;-80
2021/04/28 03:10:09;;;;;;;12.52;5.40;;;;;;;;;;5060485;28;20202;-81
2021/04/28 03:12:36;;;;;;;11.85;6.78;;;;;;;;;;5060396;28;20232;-80
2021/04/28 03:15:05;;;;;;;9.38;4.97;;;;;;;;;;5060083;28;20201;-81
2021/04/28 03:17:32;;;;;;;9.52;5.63;;;;;;;;;;5060273;28;20205;-81
2021/04/28 03:19:59;;;;;;;6.18;4.95;;;;;;;;;;5061221;28;20606;-81
2021/04/28 03:22:26;;;;;;;8.73;5.30;;;;;;;;;;5061572;28;20248;-81
2021/04/28 03:24:55;;;;;;;8.30;5.88;;;;;;;;;;5060471;28;20182;-81
2021/04/28 03:27:24;;;;;;;9.10;5.13;;;;;;;;;;5060895;28;20595;-81
2021/04/28 03:29:51;;;;;;;12.25;6.25;;;;;;;;;;5060382;28;20229;-82
2021/04/28 03:32:18;;;;;;;10.90;6.30;;;;;;;;;;5059755;28;20287;-81
2021/04/28 03:34:45;;;;;;;7.85;5.18;;;;;;;;;;5060440;28;20212;-81
2021/04/28 03:37:12;;;;;;;12.50;7.05;;;;;;;;;;5060073;28;20272;-81
2021/04/28 03:39:39;;;;;;;11.07;6.82;;;;;;;;;;5060375;28;20209;-81
2021/04/28 03:42:08;;;;;;;9.68;6.20;;;;;;;;;;5060359;28;20221;-81
2021/04/28 03:44:35;;;;;;;11.23;5.85;;;;;;;;;;5060598;28;20690;-81
2021/04/28 03:47:02;;;;;;;8.70;6.25;;;;;;;;;;5060530;28;20235;-81
2021/04/28 03:49:29;;;;;;;11.18;7.05;;;;;;;;;;5061375;28;20205;-81
2021/04/28 03:51:56;;;;;;;13.48;6.85;;;;;;;;;;5060453;28;20213;-80
2021/04/28 03:54:23;;;;;;;13.38;6.85;;;;;;;;;;5059860;28;20581;-81
2021/04/28 03:56:50;;;;;;;12.52;8.00;;;;;;;;;;5059322;28;20229;-80
2021/04/28 03:59:18;;;;;;;11.75;7.82;;;;;;;;;;5060648;28;20204;-80
2021/04/28 04:01:45;;;;;;;9.85;6.53;;;;;;;;;;5060172;28;20648;-82
2021/04/28 04:04:12;;;;;;;11.07;6.60;;;;;;;;;;5060388;28;20222;-81
2021/04/28 04:06:39;;;;;;;8.82;5.57;;;;;;;;;;5059280;28;20178;-81
2021/04/28 04:09:07;;;;;;;8.68;6.00;;;;;;;;;;5059225;28;20208;-81
2021/04/28 04:11:34;;;;;;;5.60;4.55;;;;;;;;;;5059245;28;20213;-81
2021/04/28 04:14:01;;;;;;;10.27;5.78;;;;;;;;;;5059274;28;20585;-81
2021/04/28 04:16:29;;;;;;;11.00;5.47;;;;;;;;;;5059566;28;20186;-81
2021/04/28 04:18:56;;;;;;;8.52;6.15;;;;;;;;;;5060338;28;20190;-81
2021/04/28 04:21:23;;;;;;;8.05;5.97;;;;;;;;;;5059111;28;20212;-81
2021/04/28 04:23:50;;;;;;;9.38;6.20;;;;;;;;;;5058679;28;20591;-82
2021/04/28 04:26:17;;;;;;;12.27;6.07;;;;;;;;;;5058345;28;20209;-81
2021/04/28 04:28:44;;;;;;;10.23;5.50;;;;;;;;;;5057950;28;20201;-80
2021/04/28 04:31:11;;;;;;;8.82;5.82;;;;;;;;;;5058384;28;20198;-81
2021/04/28 04:33:38;;;;;;;8.07;5.22;;;;;;;;;;5057458;28;20221;-81
2021/04/28 04:36:06;;;;;;;9.00;5.53;;;;;;;;;;5058424;28;20209;-81
2021/04/28 04:38:33;;;;;;;7.53;5.60;;;;;;;;;;5058061;28;20237;-81
2021/04/28 04:41:00;;;;;;;7.63;4.85;;;;;;;;;;5057335;28;20202;-80
2021/04/28 04:43:27;;;;;;;9.13;5.45;;;;;;;;;;5056849;28;20220;-80
2021/04/28 04:45:53;;;;;;;8.02;5.10;;;;;;;;;;5059389;28;20198;-81
2021/04/28 04:48:20;;;;;;;6.20;5.18;;;;;;;;;;5055861;28;20672;-81
2021/04/28 04:50:48;;;;;;;6.95;4.97;;;;;;;;;;5056215;28;20228;-81
2021/04/28 04:53:15;;;;;;;6.03;4.68;;;;;;;;;;5057190;28;20274;-80
2021/04/28 04:55:42;;;;;;;9.02;4.72;;;;;;;;;;5055851;28;20212;-81
2021/04/28 04:58:09;;;;;;;7.93;5.57;;;;;;;;;;5055755;28;20551;-81
2021/04/28 05:00:36;;;;;;;9.60;7.45;;;;;;;;;;5053681;28;20182;-81
2021/04/28 05:03:02;;;;;;;11.20;10.05;;;;;;;;;;5051990;28;20222;-81
2021/04/28 05:05:29;;;;;;;11.50;8.50;;;;;;;;;;5052664;28;20191;-81
2021/04/28 05:07:57;;;;;;;10.43;7.65;;;;;;;;;;5052501;28;20178;-82
2021/04/28 05:10:24;;;;;;;8.45;6.78;;;;;;;;;;5052586;28;20216;-82
2021/04/28 05:12:51;;;;;;;6.95;5.80;;;;;;;;;;5052033;28;20233;-80
2021/04/28 05:15:18;;;;;;;10.55;5.30;;;;;;;;;;5051975;28;20208;-81
2021/04/28 05:17:45;;;;;;;13.95;5.97;;;;;;;;;;5052471;28;20201;-81
2021/04/28 05:20:14;;;;;;;5.50;4.70;;;;;;;;;;5052200;28;20392;-82
2021/04/28 05:22:41;;;;;;;4.97;4.20;;;;;;;;;;5053117;28;20218;-81
2021/04/28 05:25:12;;;;;;;5.50;4.10;;;;;;;;;;5053523;28;20205;-82
2021/04/28 05:27:39;;;;;;;4.03;3.63;;;;;;;;;;5053242;28;20223;-81
2021/04/28 05:30:08;;;;;;;4.25;3.85;;;;;;;;;;5053057;28;20263;-81
2021/04/28 05:32:36;;;;;;;7.00;4.15;;;;;;;;;;5053645;28;20218;-82
2021/04/28 05:35:04;;;;;;;5.10;4.20;;;;;;;;;;5052573;28;20202;-82
2021/04/28 05:37:31;;;;;;;4.55;3.92;;;;;;;;;;5052797;28;20202;-82
2021/04/28 05:39:58;;;;;;;6.18;4.03;;;;;;;;;;5053191;28;20197;-82
2021/04/28 05:42:25;;;;;;;6.88;4.38;;;;;;;;;;5052885;28;20229;-82
2021/04/28 05:44:52;;;;;;;7.75;5.15;;;;;;;;;;5052680;28;20185;-82
2021/04/28 05:47:19;;;;;;;6.80;5.50;;;;;;;;;;5051909;28;20686;-81
2021/04/28 05:49:46;;;;;;;6.25;5.20;;;;;;;;;;5052843;28;20187;-82
2021/04/28 05:52:13;;;;;;;7.20;4.95;;;;;;;;;;5053089;28;20359;-82
2021/04/28 05:54:40;;;;;;;5.57;3.83;;;;;;;;;;5053739;28;20230;-82
2021/04/28 05:57:08;;;;;;;5.07;3.30;;;;;;;;;;5053696;28;20212;-83
2021/04/28 05:59:36;;;;;;;6.50;4.53;;;;;;;;;;5053723;28;20209;-82
2021/04/28 06:02:03;;;;;;;5.78;4.68;;;;;;;;;;5053835;28;20222;-83
2021/04/28 06:04:30;;;;;;;4.70;4.03;;;;;;;;;;5053728;28;20233;-82
2021/04/28 06:06:56;;;;;;;7.75;4.78;;;;;;;;;;5053386;28;20201;-83
2021/04/28 06:09:24;;;;;;;4.57;4.03;;;;;;;;;;5053255;28;20201;-82
2021/04/28 06:11:51;;;;;;;7.38;5.25;;;;;;;;;;5056229;28;20659;-83
2021/04/28 06:14:18;;;;;;;7.22;4.30;;;;;;;;;;5057484;28;20193;-81
2021/04/28 06:16:46;;;;;;;5.70;4.18;;;;;;;;;;5056645;28;20201;-84
2021/04/28 06:19:13;;;;;;;7.32;5.68;;;;;;;;;;5057920;28;20206;-83
2021/04/28 06:21:40;;;;;;;4.60;4.00;;;;;;;;;;5055936;28;20193;-82
2021/04/28 06:24:08;;;;;;;5.10;4.05;;;;;;;;;;5072371;28;20224;-82
2021/04/28 06:26:36;;;;;;;4.65;4.15;;;;;;;;;;5072877;28;20204;-82
2021/04/28 06:29:03;;;;;;;6.47;4.10;;;;;;;;;;5069406;28;20209;-83
2021/04/28 06:31:30;;;;;;;6.75;4.78;;;;;;;;;;5057171;28;20193;-82
2021/04/28 06:33:57;;;;;;;6.88;4.35;;;;;;;;;;5057387;28;20190;-83
2021/04/28 06:36:24;;;;;;;4.65;4.20;;;;;;;;;;5057650;28;20526;-82
2021/04/28 06:38:51;;;;;;;9.52;5.68;;;;;;;;;;5056422;28;20205;-82
2021/04/28 06:41:18;;;;;;;6.72;4.18;;;;;;;;;;5057998;28;20209;-82
2021/04/28 06:43:45;;;;;;;4.72;4.00;;;;;;;;;;5076609;28;20221;-82
2021/04/28 06:46:12;;;;;;;8.98;5.28;;;;;;;;;;5075756;28;20205;-82
2021/04/28 06:48:39;;;;;;;6.00;4.90;;;;;;;;;;5077003;28;20562;-83
2021/04/28 06:51:07;;;;;;;6.25;5.35;;;;;;;;;;5076639;28;20204;-82
2021/04/28 06:53:34;;;;;;;5.88;4.50;;;;;;;;;;5075323;28;20213;-82
2021/04/28 06:56:01;;;;;;;5.65;4.88;;;;;;;;;;5075849;28;20178;-82
2021/04/28 06:58:30;;;;;;;7.82;4.70;;;;;;;;;;5076916;28;20221;-82
2021/04/28 07:00:56;;;;;;;6.63;4.32;;;;;;;;;;5076484;28;20220;-83
2021/04/28 07:03:23;;;;;;;4.97;4.55;;;;;;;;;;5057228;28;20238;-83
2021/04/28 07:05:50;;;;;;;6.75;4.82;;;;;;;;;;5054734;28;20327;-83
2021/04/28 07:08:18;;;;;;;7.25;5.00;;;;;;;;;;5055618;28;20209;-82
2021/04/28 07:10:45;;;;;;;6.93;5.45;;;;;;;;;;5055431;28;20208;-83
2021/04/28 07:13:12;;;;;;;7.32;4.97;;;;;;;;;;5055475;28;20230;-83
2021/04/28 07:15:39;;;;;;;6.05;5.43;;;;;;;;;;5054382;28;20182;-82
2021/04/28 07:18:06;;;;;;;8.32;6.35;;;;;;;;;;5055691;28;20588;-81
2021/04/28 07:20:33;;;;;;;7.70;5.57;;;;;;;;;;5055418;28;20201;-82
2021/04/28 07:23:00;;;;;;;7.13;6.20;;;;;;;;;;5070341;28;20220;-82
2021/04/28 07:25:28;;;;;;;6.97;5.50;;;;;;;;;;5075035;28;20205;-81
2021/04/28 07:27:55;;;;;;;8.73;5.43;;;;;;;;;;5056120;28;20198;-82
2021/04/28 07:30:22;;;;;;;13.40;6.22;;;;;;;;;;5054981;28;20198;-83
2021/04/28 07:32:49;;;;;;;11.85;9.20;;;;;;;;;;5054706;28;20233;-82
2021/04/28 07:35:19;;;;;;;9.57;7.15;;;;;;;;;;5054520;28;20197;-83
2021/04/28 07:37:46;;;;;;;7.70;6.18;;;;;;;;;;5055548;28;20255;-83
2021/04/28 07:40:14;;;;;;;9.20;7.65;;;;;;;;;;5053459;28;20247;-82
2021/04/28 07:42:42;;;;;;;12.60;8.15;;;;;;;;;;5051731;28;20221;-83
2021/04/28 07:45:10;;;;;;;10.07;7.55;;;;;;;;;;5052164;28;20189;-82
2021/04/28 07:47:37;;;;;;;9.82;7.47;;;;;;;;;;5052108;28;20276;-82
2021/04/28 07:50:06;;;;;;;8.43;6.72;;;;;;;;;;5052971;28;20567;-82
2021/04/28 07:52:32;;;;;;;8.32;7.43;;;;;;;;;;5051951;28;20226;-83
2021/04/28 07:54:59;;;;;;;9.15;6.45;;;;;;;;;;5052627;28;20224;-83
2021/04/28 07:57:26;;;;;;;8.15;6.50;;;;;;;;;;5052735;28;20174;-83
2021/04/28 07:59:54;;;;;;;10.40;8.07;;;;;;;;;;5052126;28;20209;-83
2021/04/28 08:02:21;;;;;;;8.23;6.55;;;;;;;;;;5052700;28;20217;-82
2021/04/28 08:04:48;;;;;;;6.55;5.93;;;;;;;;;;5033768;28;552738;-83
2021/04/28 08:07:15;;;;;;;7.38;6.45;;;;;;;;;;5052230;28;20197;-82
2021/04/28 08:09:45;;;;;;;7.38;6.22;;;;;;;;;;5053018;28;20201;-83
2021/04/28 08:12:12;;;;;;;8.32;6.35;;;;;;;;;;5053152;28;20339;-82
2021/04/28 08:14:39;;;;;;;11.68;6.50;;;;;;;;;;5052959;28;20213;-83
2021/04/28 08:17:10;;;;;;;8.85;5.80;;;;;;;;;;5052391;28;20197;-83
2021/04/28 08:19:37;;;;;;;7.13;5.40;;;;;;;;;;5053408;28;20256;-83
2021/04/28 08:22:04;;;;;;;10.00;7.78;;;;;;;;;;5056103;28;20691;-83
2021/04/28 08:24:31;;;;;;;8.65;5.30;;;;;;;;;;5052624;28;20661;-83
2021/04/28 08:26:58;;;;;;;6.63;5.93;;;;;;;;;;5052233;28;20197;-83
2021/04/28 08:29:26;;;;;;;7.22;6.53;;;;;;;;;;5052638;28;20201;-83
2021/04/28 08:31:53;;;;;;;6.45;5.85;;;;;;;;;;5058679;28;20714;-83
2021/04/28 08:34:21;;;;;;;6.63;5.93;;;;;;;;;;5071821;28;20185;-83
2021/04/28 08:36:47;;;;;;;8.35;6.07;;;;;;;;;;5072761;28;20193;-84
2021/04/28 08:39:15;;;;;;;10.52;7.00;;;;;;;;;;5072751;28;20209;-83
2021/04/28 08:41:42;;;;;;;8.23;6.28;;;;;;;;;;5072287;28;20199;-83
2021/04/28 08:44:09;;;;;;;7.15;6.40;;;;;;;;;;5072420;28;20188;-82
2021/04/28 08:46:36;;;;;;;7.63;6.28;;;;;;;;;;5071511;28;20182;-83
2021/04/28 08:49:04;;;;;;;7.22;6.35;;;;;;;;;;5072056;28;20189;-83
2021/04/28 08:51:32;;;;;;;8.80;6.68;;;;;;;;;;5068600;28;20689;-82
2021/04/28 08:53:59;;;;;;;6.97;6.35;;;;;;;;;;5052820;28;20190;-83
2021/04/28 08:56:26;;;;;;;8.55;6.50;;;;;;;;;;5052575;28;20180;-83
2021/04/28 08:58:55;;;;;;;7.50;5.85;;;;;;;;;;5052258;28;20225;-82
2021/04/28 09:01:29;;;;;;;7.28;6.53;;;;;;;;;;5054316;28;20277;-82
2021/04/28 09:03:59;;;;;;;9.18;6.20;;;;;;;;;;5072056;28;20236;-84
2021/04/28 09:06:32;;;;;;;8.52;6.75;;;;;;;;;;5072485;28;20204;-84
2021/04/28 09:09:05;;;;;;;8.68;6.88;;;;;;;;;;5072725;28;20249;-82
2021/04/28 09:11:43;;;;;;;9.13;8.23;;;;;;;;;;5067383;28;20683;-82
2021/04/28 09:14:17;;;;;;;7.20;6.50;;;;;;;;;;5072395;28;20204;-84
2021/04/28 09:16:46;;;;;;;9.50;7.32;;;;;;;;;;5071482;28;20205;-84
2021/04/28 09:19:25;;;;;;;8.00;6.40;;;;;;;;;;5072176;28;20217;-83
2021/04/28 09:21:58;;;;;;;8.82;6.28;;;;;;;;;;5069386;28;20307;-84
2021/04/28 09:24:28;;;;;;;7.38;6.68;;;;;;;;;;5054843;28;20212;-82
2021/04/28 09:26:57;;;;;;;6.88;5.80;;;;;;;;;;5071818;28;20238;-82
2021/04/28 09:29:27;;;;;;;9.85;7.22;;;;;;;;;;5072406;28;20239;-81
2021/04/28 09:32:04;;;;;;;8.60;6.53;;;;;;;;;;5066215;28;20217;-82
2021/04/28 09:34:34;;;;;;;9.20;6.55;;;;;;;;;;5066183;28;20201;-83
2021/04/28 09:37:09;;;;;;;8.07;6.93;;;;;;;;;;5051718;28;20182;-84
2021/04/28 09:39:48;;;;;;;7.03;6.32;;;;;;;;;;5052140;28;20208;-84
2021/04/28 09:42:17;;;;;;;9.13;7.70;;;;;;;;;;5051351;28;20225;-84
2021/04/28 09:44:47;;;;;;;7.32;6.63;;;;;;;;;;5051772;28;20185;-84
2021/04/28 09:47:16;;;;;;;8.40;7.15;;;;;;;;;;5051764;28;20252;-83
2021/04/28 09:49:55;;;;;;;9.00;7.07;;;;;;;;;;5051991;28;20252;-84
2021/04/28 09:52:40;;;;;;;11.00;7.55;;;;;;;;;;5051804;28;20217;-84
2021/04/28 09:55:10;;;;;;;8.60;7.03;;;;;;;;;;5051084;28;20225;-84
2021/04/28 09:57:39;;;;;;;7.45;6.45;;;;;;;;;;5052141;28;20182;-84
2021/04/28 10:00:17;;;;;;;14.55;9.02;;;;;;;;;;5051519;28;20224;-84
2021/04/28 10:02:50;;;;;;;7.47;6.68;;;;;;;;;;5051069;28;20775;-83
2021/04/28 10:05:20;;;;;;;12.52;6.93;;;;;;;;;;5051614;28;20213;-82
2021/04/28 10:07:49;;;;;;;6.47;5.65;;;;;;;;;;5051833;28;20193;-84
2021/04/28 10:10:17;;;;;;;6.40;5.80;;;;;;;;;;5051803;28;20186;-84
2021/04/28 10:12:44;;;;;;;9.77;7.90;;;;;;;;;;5065244;28;20228;-84
2021/04/28 10:15:13;;;;;;;9.23;5.68;;;;;;;;;;5071650;28;20204;-82
2021/04/28 10:17:40;;;;;;;5.22;4.80;;;;;;;;;;5071777;28;20177;-82
2021/04/28 10:20:10;;;;;;;6.68;5.38;;;;;;;;;;5072146;28;20205;-83
2021/04/28 10:22:37;;;;;;;6.53;5.93;;;;;;;;;;5071435;28;20217;-82
2021/04/28 10:25:09;;;;;;;7.60;6.90;;;;;;;;;;5071223;28;20188;-82
2021/04/28 10:27:39;;;;;;;6.20;5.45;;;;;;;;;;5071027;28;20197;-82
2021/04/28 10:30:08;;;;;;;6.95;6.25;;;;;;;;;;5071040;28;20559;-82
2021/04/28 10:32:35;;;;;;;6.82;5.90;;;;;;;;;;5059639;28;20218;-82
2021/04/28 10:35:06;;;;;;;6.13;5.38;;;;;;;;;;5051785;28;20216;-82
2021/04/28 10:37:35;;;;;;;6.43;5.75;;;;;;;;;;5051829;28;20584;-82
2021/04/28 10:40:09;;;;;;;6.93;5.93;;;;;;;;;;5055122;28;20227;-83
2021/04/28 10:42:38;;;;;;;11.13;6.88;;;;;;;;;;5071216;28;20611;-82
2021/04/28 10:45:08;;;;;;;8.60;7.40;;;;;;;;;;5071073;28;20221;-82
2021/04/28 10:47:41;;;;;;;6.53;5.78;;;;;;;;;;5071596;28;20196;-82
2021/04/28 10:50:22;;;;;;;7.53;6.40;;;;;;;;;;5071306;28;20227;-82
2021/04/28 10:52:59;;;;;;;7.82;6.30;;;;;;;;;;5071333;28;20580;-83
2021/04/28 10:55:53;;;;;;;9.00;7.18;;;;;;;;;;5071409;28;20216;-82
2021/04/28 10:58:46;;;;;;;7.38;6.55;;;;;;;;;;5075310;28;20204;-83
2021/04/28 11:01:19;;;;;;;8.38;6.43;;;;;;;;;;5079109;28;20709;-83
2021/04/28 11:03:49;;;;;;;6.35;5.75;;;;;;;;;;5078883;28;20707;-83
2021/04/28 11:06:36;;;;;;;5.53;5.00;;;;;;;;;;5078433;28;20623;-83
2021/04/28 11:09:12;;;;;;;6.03;5.30;;;;;;;;;;5078409;28;20201;-83
2021/04/28 11:11:45;;;;;;;5.75;5.20;;;;;;;;;;5078350;28;20192;-83
2021/04/28 11:14:29;;;;;;;7.38;5.32;;;;;;;;;;5078458;28;20196;-82
2021/04/28 11:16:58;;;;;;;6.43;5.82;;;;;;;;;;5078078;28;20192;-82
2021/04/28 11:19:27;;;;;;;6.00;4.97;;;;;;;;;;5078344;28;20720;-83
2021/04/28 11:22:21;;;;;;;7.55;5.90;;;;;;;;;;5079233;28;20691;-82
2021/04/28 11:25:08;;;;;;;6.13;5.50;;;;;;;;;;5079724;28;20204;-82
2021/04/28 11:27:48;;;;;;;6.28;5.65;;;;;;;;;;5079121;28;20666;-83
2021/04/28 11:30:51;;;;;;;8.88;5.65;;;;;;;;;;5078023;28;20682;-82
2021/04/28 11:33:33;;;;;;;5.30;4.80;;;;;;;;;;5079446;28;20290;-82
2021/04/28 11:36:21;;;;;;;6.75;6.05;;;;;;;;;;5078528;28;20204;-82
2021/04/28 11:38:51;;;;;;;7.18;6.45;;;;;;;;;;5074804;28;20228;-82
2021/04/28 11:41:23;;;;;;;8.48;6.20;;;;;;;;;;5078786;28;20319;-84
2021/04/28 11:43:53;;;;;;;9.93;6.30;;;;;;;;;;5079026;28;20659;-84
2021/04/28 11:46:22;;;;;;;9.50;6.13;;;;;;;;;;5078477;28;20205;-85
2021/04/28 11:48:51;;;;;;;7.05;6.40;;;;;;;;;;5078848;28;20201;-85
2021/04/28 11:51:21;;;;;;;6.68;5.95;;;;;;;;;;5078332;28;20197;-85
2021/04/28 11:53:50;;;;;;;7.60;6.20;;;;;;;;;;5079644;28;20225;-85
2021/04/28 11:56:32;;;;;;;7.78;5.55;;;;;;;;;;5078300;28;20205;-85
2021/04/28 11:59:01;;;;;;;6.53;5.80;;;;;;;;;;5077967;28;20197;-85
2021/04/28 12:01:29;;;;;;;7.40;6.53;;;;;;;;;;5079140;28;20217;-84
2021/04/28 12:03:59;;;;;;;6.38;5.55;;;;;;;;;;5079122;28;20255;-84
2021/04/28 12:06:33;;;;;;;8.50;6.30;;;;;;;;;;5078537;28;20209;-85
2021/04/28 12:09:18;;;;;;;7.07;4.95;;;;;;;;;;5077782;28;20188;-85
2021/04/28 12:11:48;;;;;;;5.13;4.65;;;;;;;;;;5078068;28;20556;-84
2021/04/28 12:14:24;;;;;;;6.45;5.45;;;;;;;;;;5078542;28;20211;-85
2021/04/28 12:16:55;;;;;;;7.10;4.90;;;;;;;;;;5078165;28;20196;-84
2021/04/28 12:19:23;;;;;;;7.05;5.40;;;;;;;;;;5074762;28;20201;-85
2021/04/28 12:21:55;;;;;;;5.50;4.78;;;;;;;;;;5074517;28;20622;-85
2021/04/28 12:24:30;;;;;;;5.40;4.53;;;;;;;;;;5075133;28;20216;-84
2021/04/28 12:27:10;;;;;;;5.43;4.93;;;;;;;;;;5073335;28;20291;-84
2021/04/28 12:29:40;;;;;;;5.50;5.00;;;;;;;;;;5073563;28;20675;-84
2021/04/28 12:32:08;;;;;;;6.05;5.45;;;;;;;;;;5073753;28;20217;-84
2021/04/28 12:34:37;;;;;;;5.40;4.90;;;;;;;;;;5075937;28;20196;-84
2021/04/28 12:37:25;;;;;;;5.55;5.05;;;;;;;;;;5075030;28;20704;-84
2021/04/28 12:39:56;;;;;;;8.70;5.80;;;;;;;;;;5070426;28;20204;-85
2021/04/28 12:42:27;;;;;;;6.10;5.50;;;;;;;;;;5075649;28;20700;-85
2021/04/28 12:44:56;;;;;;;6.03;5.53;;;;;;;;;;5076077;28;20254;-84
2021/04/28 12:47:28;;;;;;;6.32;5.70;;;;;;;;;;5075089;28;20197;-86
2021/04/28 12:50:08;;;;;;;5.65;5.05;;;;;;;;;;5075940;28;20197;-84
2021/04/28 12:52:37;;;;;;;8.18;6.25;;;;;;;;;;5076150;28;20594;-84
2021/04/28 12:55:35;;;;;;;6.72;4.93;;;;;;;;;;5074862;28;20564;-83
2021/04/28 12:58:05;;;;;;;5.70;5.13;;;;;;;;;;5074601;28;20212;-83
2021/04/28 13:00:39;;;;;;;6.20;5.60;;;;;;;;;;5074075;28;20233;-84
2021/04/28 13:03:15;;;;;;;8.55;5.80;;;;;;;;;;5073677;28;20229;-84
2021/04/28 13:05:51;;;;;;;5.13;4.63;;;;;;;;;;5075548;28;20224;-83
2021/04/28 13:08:39;;;;;;;6.15;5.50;;;;;;;;;;5075510;28;20204;-83
2021/04/28 13:11:13;;;;;;;4.82;4.30;;;;;;;;;;5074531;28;20303;-84
2021/04/28 13:13:44;;;;;;;5.90;5.38;;;;;;;;;;5074607;28;20280;-84
2021/04/28 13:16:35;;;;;;;8.43;6.22;;;;;;;;;;5074305;28;20590;-84
2021/04/28 13:19:08;;;;;;;5.68;5.18;;;;;;;;;;5074175;28;20207;-83
2021/04/28 13:21:41;;;;;;;7.45;5.38;;;;;;;;;;5074469;28;20220;-83
2021/04/28 13:24:15;;;;;;;4.97;4.47;;;;;;;;;;5074810;28;20232;-83
2021/04/28 13:26:57;;;;;;;6.15;5.55;;;;;;;;;;5075065;28;20209;-84
2021/04/28 13:29:24;;;;;;;7.30;5.72;;;;;;;;;;5075769;28;20238;-83
2021/04/28 13:31:52;;;;;;;8.25;6.07;;;;;;;;;;5074985;28;20213;-84
2021/04/28 13:34:27;;;;;;;6.00;5.40;;;;;;;;;;5073972;28;20258;-83
2021/04/28 13:36:55;;;;;;;8.30;5.20;;;;;;;;;;5074826;28;20211;-83
2021/04/28 13:39:30;;;;;;;6.72;5.15;;;;;;;;;;5074900;28;20209;-84
2021/04/28 13:41:58;;;;;;;8.77;5.47;;;;;;;;;;5075260;28;20228;-83
2021/04/28 13:44:27;;;;;;;5.95;5.30;;;;;;;;;;5074820;28;20207;-83
2021/04/28 13:46:55;;;;;;;6.53;5.75;;;;;;;;;;5074783;28;20368;-83
2021/04/28 13:49:22;;;;;;;6.40;5.03;;;;;;;;;;5075256;28;20219;-84
2021/04/28 13:51:53;;;;;;;4.93;4.53;;;;;;;;;;5074313;28;20776;-83
2021/04/28 13:54:21;;;;;;;4.68;4.28;;;;;;;;;;5075103;28;20212;-83
2021/04/28 13:56:50;;;;;;;9.20;5.00;;;;;;;;;;5074046;28;20201;-83
2021/04/28 13:59:18;;;;;;;6.90;4.68;;;;;;;;;;5074306;28;20594;-84
2021/04/28 14:01:45;;;;;;;5.72;5.13;;;;;;;;;;5074212;28;20213;-84
2021/04/28 14:04:13;;;;;;;6.20;5.28;;;;;;;;;;5074990;28;20244;-84
2021/04/28 14:06:40;;;;;;;6.78;4.65;;;;;;;;;;5074766;28;20204;-84
2021/04/28 14:09:07;;;;;;;5.13;4.63;;;;;;;;;;5074412;28;20197;-84
2021/04/28 14:11:34;;;;;;;5.72;5.15;;;;;;;;;;5074517;28;20208;-83
2021/04/28 14:14:01;;;;;;;5.85;5.15;;;;;;;;;;5074475;28;20268;-84
2021/04/28 14:16:28;;;;;;;6.53;5.65;;;;;;;;;;5075047;28;20205;-83
2021/04/28 14:18:54;;;;;;;5.80;5.25;;;;;;;;;;5074875;28;20209;-84
2021/04/28 14:21:22;;;;;;;5.88;5.13;;;;;;;;;;5073917;28;20227;-84
2021/04/28 14:23:49;;;;;;;6.07;5.47;;;;;;;;;;5074109;28;20229;-84
2021/04/28 14:26:16;;;;;;;5.40;4.57;;;;;;;;;;5073914;28;20208;-84
2021/04/28 14:28:43;;;;;;;4.75;4.18;;;;;;;;;;5074810;28;20566;-84
2021/04/28 14:31:09;;;;;;;5.90;3.70;;;;;;;;;;5074725;28;20220;-83
2021/04/28 14:33:36;;;;;;;6.97;4.60;;;;;;;;;;5079216;28;20220;-84
2021/04/28 14:36:03;;;;;;;4.57;4.18;;;;;;;;;;5077796;28;20208;-83
2021/04/28 14:38:31;;;;;;;4.53;3.80;;;;;;;;;;5077981;28;20204;-83
2021/04/28 14:40:58;;;;;;;5.65;4.82;;;;;;;;;;5078663;28;20254;-83
2021/04/28 14:43:26;;;;;;;5.40;4.30;;;;;;;;;;5077977;28;20285;-83
2021/04/28 14:45:55;;;;;;;5.82;5.03;;;;;;;;;;5078040;28;20287;-84
2021/04/28 14:48:23;;;;;;;5.18;4.68;;;;;;;;;;5078171;28;20201;-84
2021/04/28 14:50:50;;;;;;;5.10;3.75;;;;;;;;;;5078852;28;20211;-83
2021/04/28 14:53:17;;;;;;;6.60;4.93;;;;;;;;;;5077999;28;20619;-84